Huvudsida
METAR-TAF:

METAR-TAF

Flygplatser :

Mariehamns flygplats

Mariehamn, Finland

latitud: 60-07N, longitud: 019-54E, höjd: 6 m

Aktuellt väderrapport

Denna rapport gjordes för 30 minuter sedan, klockan 12:20 UTC
Vind 9 kt från nord, varierande mellan nordväst och nord/nordost
Temperatur 19°C
Fuktighet 60%
Tryck 1018 hPa
Sikt 10 km eller mer
Inga moln under 1 500 m eller inga cumulonimbus

METAR: EFMA 241220Z AUTO 36009KT 320V030 CAVOK 19/11 Q1018

Tid: 15:50 (12:50 UTC)

Väderprognos

Denna rapport gjordes för 1 timme och 21 minuter sedan, klockan 11:29 UTC
Prognos gäller från 24 kl. 12 UTC till 24 kl. 21 UTC
Vind 9 kt från nord
Sikt 10 km eller mer
Inga moln under 1 500 m eller inga cumulonimbus

TAF: EFMA 241129Z 2412/2421 35009KT CAVOK

Aktuella väderrapporter och prognoser från 4000 flygplatser (METAR- och TAF-rapporter).

De tillgängliga stationerna syns som gula och röda prickar på kartan.

För musen över prickarna för att se namnen på stationerna.

Klicka sedan för att få väderrapporter och prognoser.

För att ändra kartan: Klicka på de gröna knapparna med ett svart kors på för att zooma in; den gröna knappen med ett streck på för att zooma ut; eller på de gröna pilarna för angränsande kartor.


METAR-TAF: